East Charlemont, Massachusetts
Current Conditions -  °F | °C
As of 3:52 PM on Monday 24 Nov 2014 (Local Time) from KAQW Reporting Station
Clear Clear  
Wind Chill: 66°   Ceiling: Unl
Heat Index: 66°   Visibility: 10mi
Dew Point: 54°   Wind: 17mph
Humidity: 65%   Direction: 190°S
Pressure: 29.51"   Gusts: 25mph
Location:  42.6026°N, 72.7442°W
Report Text: KAQW 242052Z AUTO 19015G22KT 10SM CLR 19/12 A2951 RMK AO2 PK WND 19027/2001 SLP993 T01890122 55009
Loading
Personal Weather Stations






























Interactive Weather Map New forecast layout! Learn more

10-Day Weather Forecast

Advertisements
Track Severe Weather on mobile